createdAt,value
2019-02-17T00:00:38.861Z,1024.94
2019-02-17T00:01:19.462Z,1024.99
2019-02-17T00:02:00.113Z,1025.01
2019-02-17T00:02:40.773Z,1024.97
2019-02-17T00:03:21.532Z,1024.96
2019-02-17T00:04:02.163Z,1024.98
2019-02-17T00:04:42.765Z,1024.96
2019-02-17T00:05:23.386Z,1024.94
2019-02-17T00:06:03.981Z,1024.99
2019-02-17T00:06:44.585Z,1024.96
2019-02-17T00:07:25.169Z,1024.93
2019-02-17T00:08:05.799Z,1024.94
2019-02-17T00:08:46.391Z,1024.93
2019-02-17T00:09:26.991Z,1024.99
2019-02-17T00:10:07.583Z,1024.93
2019-02-17T00:10:48.186Z,1024.95
2019-02-17T00:11:28.809Z,1024.99
2019-02-17T00:12:09.406Z,1024.93
2019-02-17T00:12:50.281Z,1024.91
2019-02-17T00:13:30.887Z,1024.9
2019-02-17T00:14:11.515Z,1024.86
2019-02-17T00:14:52.104Z,1024.93
2019-02-17T00:15:32.709Z,1024.91
2019-02-17T00:16:13.354Z,1024.91
2019-02-17T00:16:53.977Z,1024.92
2019-02-17T00:17:34.609Z,1024.91
2019-02-17T00:18:15.216Z,1024.88
2019-02-17T00:18:55.859Z,1024.85
2019-02-17T00:19:36.507Z,1024.83
2019-02-17T00:20:17.134Z,1024.82
2019-02-17T00:20:57.765Z,1024.81
2019-02-17T00:21:38.544Z,1024.8
2019-02-17T00:22:19.139Z,1024.84
2019-02-17T00:22:59.737Z,1024.85
2019-02-17T00:23:40.341Z,1024.84
2019-02-17T00:24:21.021Z,1024.9
2019-02-17T00:25:02.166Z,1024.84
2019-02-17T00:25:43.515Z,1024.86
2019-02-17T00:26:24.201Z,1024.82
2019-02-17T00:27:06.173Z,1024.83
2019-02-17T00:27:46.771Z,1024.83
2019-02-17T00:28:27.363Z,1024.79
2019-02-17T00:29:08.579Z,1024.78
2019-02-17T00:29:49.189Z,1024.77
2019-02-17T00:30:29.787Z,1024.74
2019-02-17T00:31:10.386Z,1024.78
2019-02-17T00:31:51.191Z,1024.78
2019-02-17T00:32:31.817Z,1024.79
2019-02-17T00:33:12.405Z,1024.74
2019-02-17T00:33:53.041Z,1024.74
2019-02-17T00:34:33.665Z,1024.73
2019-02-17T00:35:14.265Z,1024.72
2019-02-17T00:35:54.883Z,1024.71
2019-02-17T00:36:35.533Z,1024.75
2019-02-17T00:37:16.171Z,1024.72
2019-02-17T00:37:56.846Z,1024.76
2019-02-17T00:38:37.499Z,1024.78
2019-02-17T00:39:18.095Z,1024.78
2019-02-17T00:39:58.693Z,1024.76
2019-02-17T00:40:39.289Z,1024.74
2019-02-17T00:41:19.887Z,1024.77
2019-02-17T00:42:00.499Z,1024.74
2019-02-17T00:42:41.081Z,1024.75
2019-02-17T00:43:21.675Z,1024.76
2019-02-17T00:44:02.255Z,1024.75
2019-02-17T00:44:42.843Z,1024.74
2019-02-17T00:45:23.450Z,1024.72
2019-02-17T00:46:04.065Z,1024.74
2019-02-17T00:46:44.645Z,1024.74
2019-02-17T00:47:25.246Z,1024.74
2019-02-17T00:48:05.845Z,1024.7
2019-02-17T00:48:46.459Z,1024.7
2019-02-17T00:49:27.086Z,1024.72
2019-02-17T00:50:07.671Z,1024.68
2019-02-17T00:50:48.267Z,1024.67
2019-02-17T00:51:28.863Z,1024.7
2019-02-17T00:52:09.451Z,1024.7
2019-02-17T00:52:50.047Z,1024.68
2019-02-17T00:53:30.627Z,1024.65
2019-02-17T00:54:11.245Z,1024.68
2019-02-17T00:54:51.898Z,1024.62
2019-02-17T00:55:32.495Z,1024.68
2019-02-17T00:56:13.129Z,1024.68
2019-02-17T00:56:53.775Z,1024.66
2019-02-17T00:57:34.333Z,1024.64
2019-02-17T00:58:14.929Z,1024.66
2019-02-17T00:58:55.555Z,1024.65
2019-02-17T00:59:36.145Z,1024.65
2019-02-17T01:00:16.753Z,1024.66
2019-02-17T01:00:57.351Z,1024.64
2019-02-17T01:01:37.948Z,1024.62
2019-02-17T01:02:18.589Z,1024.62
2019-02-17T01:02:59.214Z,1024.59
2019-02-17T01:03:39.855Z,1024.63
2019-02-17T01:04:20.437Z,1024.62
2019-02-17T01:05:01.032Z,1024.64
2019-02-17T01:05:41.636Z,1024.62
2019-02-17T01:06:22.236Z,1024.66
2019-02-17T01:07:02.849Z,1024.61
2019-02-17T01:07:43.455Z,1024.58
2019-02-17T01:08:24.063Z,1024.58
2019-02-17T01:09:04.667Z,1024.61
2019-02-17T01:09:45.258Z,1024.59
2019-02-17T01:10:25.870Z,1024.59
2019-02-17T01:11:06.484Z,1024.62
2019-02-17T01:11:47.061Z,1024.58
2019-02-17T01:12:27.674Z,1024.58
2019-02-17T01:13:08.290Z,1024.57
2019-02-17T01:13:48.892Z,1024.57
2019-02-17T01:14:29.475Z,1024.54
2019-02-17T01:15:10.092Z,1024.57
2019-02-17T01:15:50.676Z,1024.56
2019-02-17T01:16:31.298Z,1024.56
2019-02-17T01:17:11.884Z,1024.5
2019-02-17T01:17:52.475Z,1024.52
2019-02-17T01:18:33.090Z,1024.52
2019-02-17T01:19:13.687Z,1024.52
2019-02-17T01:19:54.281Z,1024.53
2019-02-17T01:20:34.890Z,1024.5
2019-02-17T01:21:15.478Z,1024.48
2019-02-17T01:21:56.072Z,1024.48
2019-02-17T01:22:36.652Z,1024.44
2019-02-17T01:23:17.236Z,1024.47
2019-02-17T01:23:57.854Z,1024.44
2019-02-17T01:24:38.464Z,1024.48
2019-02-17T01:25:19.072Z,1024.46
2019-02-17T01:25:59.668Z,1024.46
2019-02-17T01:26:40.258Z,1024.46
2019-02-17T01:27:20.898Z,1024.48
2019-02-17T01:28:01.510Z,1024.5
2019-02-17T01:28:42.121Z,1024.48
2019-02-17T01:29:22.718Z,1024.47
2019-02-17T01:30:03.332Z,1024.47
2019-02-17T01:30:43.928Z,1024.44
2019-02-17T01:31:24.519Z,1024.48
2019-02-17T01:32:05.165Z,1024.46
2019-02-17T01:32:45.771Z,1024.47
2019-02-17T01:33:26.360Z,1024.46
2019-02-17T01:34:06.944Z,1024.45
2019-02-17T01:34:47.535Z,1024.48
2019-02-17T01:35:28.153Z,1024.47
2019-02-17T01:36:08.768Z,1024.47
2019-02-17T01:36:49.375Z,1024.48
2019-02-17T01:37:29.952Z,1024.47
2019-02-17T01:38:10.538Z,1024.49
2019-02-17T01:38:51.153Z,1024.49
2019-02-17T01:39:31.849Z,1024.48
2019-02-17T01:40:12.454Z,1024.45
2019-02-17T01:40:53.048Z,1024.45
2019-02-17T01:41:33.641Z,1024.42
2019-02-17T01:42:14.235Z,1024.45
2019-02-17T01:42:54.814Z,1024.45
2019-02-17T01:43:35.432Z,1024.45
2019-02-17T01:44:16.026Z,1024.41
2019-02-17T01:44:56.614Z,1024.43
2019-02-17T01:45:37.209Z,1024.4
2019-02-17T01:46:17.806Z,1024.44
2019-02-17T01:46:58.390Z,1024.42
2019-02-17T01:47:39.006Z,1024.46
2019-02-17T01:48:19.602Z,1024.46
2019-02-17T01:49:00.229Z,1024.44
2019-02-17T01:49:40.832Z,1024.46
2019-02-17T01:50:21.443Z,1024.48
2019-02-17T01:51:02.073Z,1024.46
2019-02-17T01:51:42.684Z,1024.48
2019-02-17T01:52:23.283Z,1024.45
2019-02-17T01:53:03.875Z,1024.46
2019-02-17T01:53:44.493Z,1024.47
2019-02-17T01:54:25.085Z,1024.44
2019-02-17T01:55:05.681Z,1024.47
2019-02-17T01:55:46.992Z,1024.49
2019-02-17T01:56:26.874Z,1024.48
2019-02-17T01:57:07.467Z,1024.47
2019-02-17T01:57:48.056Z,1024.45
2019-02-17T01:58:28.651Z,1024.42
2019-02-17T01:59:09.241Z,1024.46
2019-02-17T01:59:49.853Z,1024.45
2019-02-17T02:00:30.441Z,1024.45
2019-02-17T02:01:11.029Z,1024.41
2019-02-17T02:01:51.637Z,1024.44
2019-02-17T02:02:32.249Z,1024.43
2019-02-17T02:03:12.862Z,1024.39
2019-02-17T02:03:53.481Z,1024.38
2019-02-17T02:04:34.063Z,1024.39
2019-02-17T02:05:14.661Z,1024.39
2019-02-17T02:05:55.254Z,1024.38
2019-02-17T02:06:35.866Z,1024.4
2019-02-17T02:07:16.464Z,1024.35
2019-02-17T02:07:57.053Z,1024.36
2019-02-17T02:08:37.649Z,1024.36
2019-02-17T02:09:18.240Z,1024.39
2019-02-17T02:09:58.828Z,1024.36
2019-02-17T02:10:39.410Z,1024.35
2019-02-17T02:11:19.992Z,1024.35
2019-02-17T02:12:00.582Z,1024.38
2019-02-17T02:12:41.184Z,1024.32
2019-02-17T02:13:21.805Z,1024.3
2019-02-17T02:14:02.396Z,1024.34
2019-02-17T02:14:42.997Z,1024.34
2019-02-17T02:15:23.588Z,1024.32
2019-02-17T02:16:04.188Z,1024.33
2019-02-17T02:16:44.776Z,1024.31
2019-02-17T02:17:25.377Z,1024.35
2019-02-17T02:18:05.994Z,1024.35
2019-02-17T02:18:46.602Z,1024.36
2019-02-17T02:19:27.222Z,1024.38
2019-02-17T02:20:07.822Z,1024.39
2019-02-17T02:20:48.414Z,1024.36
2019-02-17T02:21:29.028Z,1024.36
2019-02-17T02:22:09.619Z,1024.34
2019-02-17T02:22:50.222Z,1024.33
2019-02-17T02:23:30.830Z,1024.34
2019-02-17T02:24:11.448Z,1024.35
2019-02-17T02:24:52.042Z,1024.32
2019-02-17T02:25:32.626Z,1024.3
2019-02-17T02:26:13.226Z,1024.31
2019-02-17T02:26:53.836Z,1024.33
2019-02-17T02:27:34.432Z,1024.35
2019-02-17T02:28:15.034Z,1024.38
2019-02-17T02:28:55.642Z,1024.37
2019-02-17T02:29:40.927Z,1024.4
2019-02-17T02:30:16.845Z,1024.38
2019-02-17T02:30:57.443Z,1024.38
2019-02-17T02:31:38.067Z,1024.36
2019-02-17T02:32:18.658Z,1024.37
2019-02-17T02:32:59.245Z,1024.35
2019-02-17T02:33:39.855Z,1024.31
2019-02-17T02:34:20.453Z,1024.32
2019-02-17T02:35:01.048Z,1024.31
2019-02-17T02:35:41.648Z,1024.29
2019-02-17T02:36:22.253Z,1024.31
2019-02-17T02:37:02.851Z,1024.29
2019-02-17T02:37:43.449Z,1024.28
2019-02-17T02:38:24.087Z,1024.33
2019-02-17T02:39:04.693Z,1024.32
2019-02-17T02:39:45.289Z,1024.32
2019-02-17T02:40:25.897Z,1024.34
2019-02-17T02:41:06.498Z,1024.28
2019-02-17T02:41:47.088Z,1024.33
2019-02-17T02:42:27.674Z,1024.29
2019-02-17T02:43:08.272Z,1024.29
2019-02-17T02:43:48.897Z,1024.31
2019-02-17T02:44:29.499Z,1024.25
2019-02-17T02:45:10.084Z,1024.3
2019-02-17T02:45:50.681Z,1024.25
2019-02-17T02:46:31.265Z,1024.28
2019-02-17T02:47:11.855Z,1024.28
2019-02-17T02:47:52.475Z,1024.27
2019-02-17T02:48:33.099Z,1024.31
2019-02-17T02:49:13.687Z,1024.26
2019-02-17T02:49:54.300Z,1024.25
2019-02-17T02:50:34.904Z,1024.29
2019-02-17T02:51:15.495Z,1024.3
2019-02-17T02:51:56.083Z,1024.27
2019-02-17T02:52:36.682Z,1024.26
2019-02-17T02:53:17.272Z,1024.25
2019-02-17T02:53:57.880Z,1024.23
2019-02-17T02:54:38.479Z,1024.22
2019-02-17T02:55:19.086Z,1024.22
2019-02-17T02:55:59.667Z,1024.23
2019-02-17T02:56:40.281Z,1024.22
2019-02-17T02:57:20.865Z,1024.22
2019-02-17T02:58:01.469Z,1024.22
2019-02-17T02:58:42.061Z,1024.22
2019-02-17T02:59:22.655Z,1024.25
2019-02-17T03:00:03.262Z,1024.23
2019-02-17T03:00:43.851Z,1024.22
2019-02-17T03:01:24.443Z,1024.21
2019-02-17T03:02:05.024Z,1024.21
2019-02-17T03:02:45.619Z,1024.2
2019-02-17T03:03:26.223Z,1024.19
2019-02-17T03:04:06.805Z,1024.19
2019-02-17T03:04:47.399Z,1024.21
2019-02-17T03:05:28.002Z,1024.24
2019-02-17T03:06:08.587Z,1024.26
2019-02-17T03:06:49.169Z,1024.26
2019-02-17T03:07:29.761Z,1024.25
2019-02-17T03:08:10.371Z,1024.24
2019-02-17T03:08:50.971Z,1024.25
2019-02-17T03:09:31.548Z,1024.25
2019-02-17T03:10:12.143Z,1024.25
2019-02-17T03:10:52.745Z,1024.26
2019-02-17T03:11:33.348Z,1024.26
2019-02-17T03:12:13.937Z,1024.28
2019-02-17T03:12:54.531Z,1024.24
2019-02-17T03:13:35.113Z,1024.31
2019-02-17T03:14:15.721Z,1024.29
2019-02-17T03:14:56.311Z,1024.3
2019-02-17T03:15:36.935Z,1024.28
2019-02-17T03:16:17.524Z,1024.24
2019-02-17T03:17:00.600Z,1024.33
2019-02-17T03:17:38.751Z,1024.32
2019-02-17T03:18:19.338Z,1024.32
2019-02-17T03:18:59.917Z,1024.32
2019-02-17T03:19:40.513Z,1024.3
2019-02-17T03:20:21.111Z,1024.3
2019-02-17T03:21:01.701Z,1024.31
2019-02-17T03:21:42.286Z,1024.34
2019-02-17T03:22:22.886Z,1024.35
2019-02-17T03:23:03.476Z,1024.38
2019-02-17T03:23:44.068Z,1024.34
2019-02-17T03:24:24.680Z,1024.37
2019-02-17T03:25:05.281Z,1024.38
2019-02-17T03:25:45.875Z,1024.4
2019-02-17T03:26:26.476Z,1024.37
2019-02-17T03:27:07.119Z,1024.35
2019-02-17T03:27:47.704Z,1024.39
2019-02-17T03:28:28.296Z,1024.37
2019-02-17T03:29:08.895Z,1024.38
2019-02-17T03:29:49.491Z,1024.38
2019-02-17T03:30:30.075Z,1024.39
2019-02-17T03:31:10.659Z,1024.4
2019-02-17T03:31:51.265Z,1024.4
2019-02-17T03:32:31.869Z,1024.35
2019-02-17T03:33:12.461Z,1024.33
2019-02-17T03:33:53.079Z,1024.38
2019-02-17T03:34:33.665Z,1024.38
2019-02-17T03:35:14.256Z,1024.37
2019-02-17T03:35:54.846Z,1024.34
2019-02-17T03:36:35.439Z,1024.36
2019-02-17T03:37:16.032Z,1024.37
2019-02-17T03:37:56.623Z,1024.38
2019-02-17T03:38:37.222Z,1024.42
2019-02-17T03:39:17.813Z,1024.37
2019-02-17T03:39:58.419Z,1024.41
2019-02-17T03:40:39.023Z,1024.42
2019-02-17T03:41:19.646Z,1024.4
2019-02-17T03:42:00.234Z,1024.37
2019-02-17T03:42:40.936Z,1024.38
2019-02-17T03:43:36.346Z,1024.38
2019-02-17T03:44:16.936Z,1024.41
2019-02-17T03:44:57.527Z,1024.37
2019-02-17T03:45:38.143Z,1024.37
2019-02-17T03:46:18.723Z,1024.42
2019-02-17T03:46:59.317Z,1024.43
2019-02-17T03:47:39.900Z,1024.42
2019-02-17T03:48:20.499Z,1024.43
2019-02-17T03:49:01.155Z,1024.46
2019-02-17T03:49:41.748Z,1024.44
2019-02-17T03:50:22.352Z,1024.44
2019-02-17T03:51:02.960Z,1024.42
2019-02-17T03:51:43.580Z,1024.44
2019-02-17T03:52:24.166Z,1024.45
2019-02-17T03:53:04.755Z,1024.42
2019-02-17T03:53:45.342Z,1024.47
2019-02-17T03:54:25.929Z,1024.4
2019-02-17T03:55:06.524Z,1024.44
2019-02-17T03:55:47.112Z,1024.45
2019-02-17T03:56:27.722Z,1024.45
2019-02-17T03:57:08.332Z,1024.43
2019-02-17T03:57:48.930Z,1024.46
2019-02-17T03:58:29.514Z,1024.45
2019-02-17T03:59:10.127Z,1024.45
2019-02-17T03:59:50.739Z,1024.47
2019-02-17T04:00:31.339Z,1024.5
2019-02-17T04:01:11.934Z,1024.49
2019-02-17T04:01:52.525Z,1024.47
2019-02-17T04:02:33.122Z,1024.48
2019-02-17T04:03:13.738Z,1024.46
2019-02-17T04:03:54.347Z,1024.43
2019-02-17T04:04:34.934Z,1024.45
2019-02-17T04:05:15.550Z,1024.46
2019-02-17T04:05:56.154Z,1024.42
2019-02-17T04:06:36.762Z,1024.43
2019-02-17T04:07:17.361Z,1024.41
2019-02-17T04:07:57.951Z,1024.41
2019-02-17T04:08:38.546Z,1024.37
2019-02-17T04:09:19.140Z,1024.41
2019-02-17T04:10:00.318Z,1024.42
2019-02-17T04:10:40.791Z,1024.46
2019-02-17T04:11:21.374Z,1024.47
2019-02-17T04:12:01.975Z,1024.44
2019-02-17T04:12:42.568Z,1024.47
2019-02-17T04:13:23.186Z,1024.44
2019-02-17T04:14:03.769Z,1024.43
2019-02-17T04:14:44.385Z,1024.43
2019-02-17T04:15:24.978Z,1024.42
2019-02-17T04:16:05.604Z,1024.42
2019-02-17T04:16:46.216Z,1024.45
2019-02-17T04:17:26.816Z,1024.41
2019-02-17T04:18:07.435Z,1024.46
2019-02-17T04:18:48.041Z,1024.49
2019-02-17T04:19:28.630Z,1024.47
2019-02-17T04:20:09.224Z,1024.45
2019-02-17T04:20:49.819Z,1024.46
2019-02-17T04:21:30.397Z,1024.44
2019-02-17T04:22:10.986Z,1024.47
2019-02-17T04:22:51.606Z,1024.4
2019-02-17T04:23:32.197Z,1024.41
2019-02-17T04:24:12.777Z,1024.43
2019-02-17T04:24:53.355Z,1024.39
2019-02-17T04:25:33.941Z,1024.43
2019-02-17T04:26:14.565Z,1024.39
2019-02-17T04:26:55.169Z,1024.41
2019-02-17T04:27:35.765Z,1024.42
2019-02-17T04:28:16.362Z,1024.45
2019-02-17T04:28:57.008Z,1024.42
2019-02-17T04:29:37.562Z,1024.46
2019-02-17T04:30:28.476Z,1024.42
2019-02-17T04:30:58.790Z,1024.41
2019-02-17T04:31:39.380Z,1024.42
2019-02-17T04:32:19.988Z,1024.4
2019-02-17T04:33:00.623Z,1024.39
2019-02-17T04:33:41.235Z,1024.39
2019-02-17T04:34:21.870Z,1024.38
2019-02-17T04:35:02.477Z,1024.41
2019-02-17T04:35:43.074Z,1024.42
2019-02-17T04:36:23.686Z,1024.43
2019-02-17T04:37:04.273Z,1024.41
2019-02-17T04:37:44.865Z,1024.42
2019-02-17T04:38:25.473Z,1024.39
2019-02-17T04:39:06.094Z,1024.41
2019-02-17T04:39:46.681Z,1024.35
2019-02-17T04:40:27.260Z,1024.39
2019-02-17T04:41:07.891Z,1024.4
2019-02-17T04:41:48.474Z,1024.39
2019-02-17T04:42:29.072Z,1024.4
2019-02-17T04:43:09.655Z,1024.41
2019-02-17T04:43:50.235Z,1024.39
2019-02-17T04:44:30.872Z,1024.41
2019-02-17T04:45:11.486Z,1024.41
2019-02-17T04:45:52.104Z,1024.4
2019-02-17T04:46:32.727Z,1024.44
2019-02-17T04:47:13.363Z,1024.44
2019-02-17T04:47:53.960Z,1024.42
2019-02-17T04:48:34.601Z,1024.4
2019-02-17T04:49:15.190Z,1024.39
2019-02-17T04:49:55.792Z,1024.4
2019-02-17T04:50:36.387Z,1024.42
2019-02-17T04:51:16.991Z,1024.41
2019-02-17T04:51:57.591Z,1024.39
2019-02-17T04:52:38.194Z,1024.41
2019-02-17T04:53:18.786Z,1024.38
2019-02-17T04:53:59.381Z,1024.37
2019-02-17T04:54:39.979Z,1024.34
2019-02-17T04:55:20.618Z,1024.31
2019-02-17T04:56:01.180Z,1024.33
2019-02-17T04:56:41.775Z,1024.31
2019-02-17T04:57:22.383Z,1024.3
2019-02-17T04:58:02.995Z,1024.3
2019-02-17T04:58:43.595Z,1024.3
2019-02-17T04:59:24.197Z,1024.3
2019-02-17T05:00:04.804Z,1024.3
2019-02-17T05:00:45.396Z,1024.33
2019-02-17T05:01:25.997Z,1024.32
2019-02-17T05:02:06.594Z,1024.3
2019-02-17T05:02:47.283Z,1024.33
2019-02-17T05:03:27.797Z,1024.34
2019-02-17T05:04:08.397Z,1024.35
2019-02-17T05:04:48.988Z,1024.35
2019-02-17T05:05:29.569Z,1024.35
2019-02-17T05:06:10.163Z,1024.37
2019-02-17T05:06:50.801Z,1024.34
2019-02-17T05:07:31.367Z,1024.36
2019-02-17T05:08:11.965Z,1024.37
2019-02-17T05:08:52.583Z,1024.36
2019-02-17T05:09:33.182Z,1024.36
2019-02-17T05:10:13.906Z,1024.38
2019-02-17T05:10:54.433Z,1024.36
2019-02-17T05:11:35.027Z,1024.36
2019-02-17T05:12:15.660Z,1024.38
2019-02-17T05:12:56.347Z,1024.37
2019-02-17T05:13:36.941Z,1024.38
2019-02-17T05:14:17.550Z,1024.36
2019-02-17T05:14:58.143Z,1024.34
2019-02-17T05:15:38.769Z,1024.33
2019-02-17T05:16:19.469Z,1024.32
2019-02-17T05:16:59.951Z,1024.36
2019-02-17T05:17:40.543Z,1024.3
2019-02-17T05:18:21.143Z,1024.29
2019-02-17T05:19:01.792Z,1024.27
2019-02-17T05:19:42.409Z,1024.27
2019-02-17T05:20:23.006Z,1024.26
2019-02-17T05:21:03.630Z,1024.25
2019-02-17T05:21:44.198Z,1024.23
2019-02-17T05:22:24.800Z,1024.26
2019-02-17T05:23:05.387Z,1024.25
2019-02-17T05:23:45.979Z,1024.26
2019-02-17T05:24:26.596Z,1024.22
2019-02-17T05:25:07.192Z,1024.21
2019-02-17T05:25:47.779Z,1024.21
2019-02-17T05:26:28.369Z,1024.19
2019-02-17T05:27:08.965Z,1024.17
2019-02-17T05:27:49.558Z,1024.19
2019-02-17T05:28:30.160Z,1024.18
2019-02-17T05:29:10.766Z,1024.18
2019-02-17T05:29:51.376Z,1024.18
2019-02-17T05:30:31.957Z,1024.18
2019-02-17T05:31:12.549Z,1024.14
2019-02-17T05:31:53.133Z,1024.2
2019-02-17T05:32:33.743Z,1024.13
2019-02-17T05:33:14.339Z,1024.14
2019-02-17T05:33:54.951Z,1024.14
2019-02-17T05:34:35.551Z,1024.15
2019-02-17T05:35:16.173Z,1024.13
2019-02-17T05:35:56.771Z,1024.13
2019-02-17T05:36:37.423Z,1024.1
2019-02-17T05:37:18.039Z,1024.13
2019-02-17T05:37:58.651Z,1024.15
2019-02-17T05:38:39.272Z,1024.16
2019-02-17T05:39:19.868Z,1024.16
2019-02-17T05:40:00.467Z,1024.17
2019-02-17T05:40:41.141Z,1024.18
2019-02-17T05:41:21.672Z,1024.15
2019-02-17T05:42:02.270Z,1024.15
2019-02-17T05:42:42.900Z,1024.1
2019-02-17T05:43:23.483Z,1024.12
2019-02-17T05:44:04.084Z,1024.11
2019-02-17T05:44:44.693Z,1024.11
2019-02-17T05:45:25.312Z,1024.11
2019-02-17T05:46:05.944Z,1024.15
2019-02-17T05:46:46.548Z,1024.14
2019-02-17T05:47:27.150Z,1024.15
2019-02-17T05:48:07.751Z,1024.14
2019-02-17T05:48:48.360Z,1024.21
2019-02-17T05:49:28.986Z,1024.17
2019-02-17T05:50:09.587Z,1024.18
2019-02-17T05:50:50.187Z,1024.15
2019-02-17T05:51:30.773Z,1024.16
2019-02-17T05:52:11.363Z,1024.13
2019-02-17T05:52:51.945Z,1024.13
2019-02-17T05:53:32.543Z,1024.13
2019-02-17T05:54:13.145Z,1024.12
2019-02-17T05:54:53.760Z,1024.12
2019-02-17T05:55:34.432Z,1024.14
2019-02-17T05:56:15.013Z,1024.13
2019-02-17T05:56:55.603Z,1024.13
2019-02-17T05:57:36.200Z,1024.13
2019-02-17T05:58:16.809Z,1024.15
2019-02-17T05:58:57.463Z,1024.17
2019-02-17T05:59:38.059Z,1024.17
2019-02-17T06:00:18.708Z,1024.17
2019-02-17T06:01:03.535Z,1024.16
2019-02-17T06:01:39.911Z,1024.19
2019-02-17T06:02:20.517Z,1024.16
2019-02-17T06:03:01.093Z,1024.16
2019-02-17T06:03:41.695Z,1024.15
2019-02-17T06:04:22.282Z,1024.14
2019-02-17T06:05:02.883Z,1024.15
2019-02-17T06:05:43.502Z,1024.15
2019-02-17T06:06:24.125Z,1024.15
2019-02-17T06:07:04.742Z,1024.14
2019-02-17T06:07:45.337Z,1024.16
2019-02-17T06:08:25.963Z,1024.14
2019-02-17T06:09:06.600Z,1024.16
2019-02-17T06:09:47.169Z,1024.15
2019-02-17T06:10:27.759Z,1024.13
2019-02-17T06:11:08.360Z,1024.17
2019-02-17T06:11:48.989Z,1024.11
2019-02-17T06:12:30.262Z,1024.15
2019-02-17T06:13:10.853Z,1024.1
2019-02-17T06:13:51.434Z,1024.14
2019-02-17T06:14:32.037Z,1024.12
2019-02-17T06:15:12.630Z,1024.15
2019-02-17T06:15:53.241Z,1024.12
2019-02-17T06:16:33.836Z,1024.16
2019-02-17T06:17:14.442Z,1024.15
2019-02-17T06:17:55.036Z,1024.17
2019-02-17T06:18:35.714Z,1024.15
2019-02-17T06:19:17.752Z,1024.17
2019-02-17T06:19:56.952Z,1024.16
2019-02-17T06:20:37.540Z,1024.19
2019-02-17T06:21:18.148Z,1024.16
2019-02-17T06:21:58.748Z,1024.14
2019-02-17T06:22:39.360Z,1024.16
2019-02-17T06:23:20.016Z,1024.17
2019-02-17T06:24:00.620Z,1024.15
2019-02-17T06:24:41.206Z,1024.14
2019-02-17T06:25:21.814Z,1024.18
2019-02-17T06:26:02.406Z,1024.15
2019-02-17T06:26:43.026Z,1024.19
2019-02-17T06:27:23.640Z,1024.18
2019-02-17T06:28:04.216Z,1024.15
2019-02-17T06:28:44.811Z,1024.16
2019-02-17T06:29:25.486Z,1024.13
2019-02-17T06:30:06.076Z,1024.14
2019-02-17T06:30:46.686Z,1024.16
2019-02-17T06:31:27.278Z,1024.16
2019-02-17T06:32:07.888Z,1024.15
2019-02-17T06:32:48.492Z,1024.19
2019-02-17T06:33:29.094Z,1024.15
2019-02-17T06:34:09.684Z,1024.14
2019-02-17T06:34:50.298Z,1024.15
2019-02-17T06:35:30.898Z,1024.16
2019-02-17T06:36:11.501Z,1024.15
2019-02-17T06:36:52.103Z,1024.17
2019-02-17T06:37:32.716Z,1024.16
2019-02-17T06:38:13.307Z,1024.14
2019-02-17T06:38:53.962Z,1024.17
2019-02-17T06:39:34.534Z,1024.14
2019-02-17T06:40:15.117Z,1024.15
2019-02-17T06:40:55.712Z,1024.12
2019-02-17T06:41:36.310Z,1024.15
2019-02-17T06:42:16.904Z,1024.11
2019-02-17T06:42:57.506Z,1024.17
2019-02-17T06:43:38.111Z,1024.17
2019-02-17T06:44:18.702Z,1024.18
2019-02-17T06:44:59.294Z,1024.22
2019-02-17T06:45:39.906Z,1024.21
2019-02-17T06:46:20.507Z,1024.23
2019-02-17T06:47:01.097Z,1024.2
2019-02-17T06:47:41.680Z,1024.24
2019-02-17T06:48:22.270Z,1024.19
2019-02-17T06:49:02.858Z,1024.19
2019-02-17T06:49:43.487Z,1024.2
2019-02-17T06:50:24.087Z,1024.18
2019-02-17T06:51:04.710Z,1024.23
2019-02-17T06:51:45.290Z,1024.2
2019-02-17T06:52:25.912Z,1024.18
2019-02-17T06:53:06.500Z,1024.2
2019-02-17T06:53:47.109Z,1024.18
2019-02-17T06:54:27.694Z,1024.2
2019-02-17T06:55:08.302Z,1024.2
2019-02-17T06:55:48.898Z,1024.21
2019-02-17T06:56:29.512Z,1024.23
2019-02-17T06:57:10.712Z,1024.21
2019-02-17T06:57:51.337Z,1024.21
2019-02-17T06:58:32.167Z,1024.22
2019-02-17T06:59:12.578Z,1024.23
2019-02-17T06:59:53.187Z,1024.26
2019-02-17T07:00:33.858Z,1024.24
2019-02-17T07:01:23.974Z,1024.25
2019-02-17T07:01:55.300Z,1024.24
2019-02-17T07:02:35.892Z,1024.24
2019-02-17T07:03:16.519Z,1024.25
2019-02-17T07:03:57.128Z,1024.28
2019-02-17T07:04:37.767Z,1024.27
2019-02-17T07:05:18.354Z,1024.29
2019-02-17T07:05:58.946Z,1024.29
2019-02-17T07:06:39.573Z,1024.31
2019-02-17T07:07:20.149Z,1024.26
2019-02-17T07:08:00.762Z,1024.31
2019-02-17T07:08:41.350Z,1024.33
2019-02-17T07:09:22.330Z,1024.34
2019-02-17T07:10:02.896Z,1024.36
2019-02-17T07:10:43.488Z,1024.34
2019-02-17T07:11:24.079Z,1024.36
2019-02-17T07:12:04.678Z,1024.35
2019-02-17T07:12:45.252Z,1024.36
2019-02-17T07:13:25.838Z,1024.42
2019-02-17T07:14:06.457Z,1024.36
2019-02-17T07:14:47.353Z,1024.39
2019-02-17T07:15:27.935Z,1024.41
2019-02-17T07:16:08.542Z,1024.39
2019-02-17T07:16:49.132Z,1024.38
2019-02-17T07:17:29.751Z,1024.4
2019-02-17T07:18:10.347Z,1024.41
2019-02-17T07:18:50.953Z,1024.4
2019-02-17T07:19:31.561Z,1024.4
2019-02-17T07:20:12.157Z,1024.42
2019-02-17T07:20:52.761Z,1024.43
2019-02-17T07:21:33.353Z,1024.44
2019-02-17T07:22:13.953Z,1024.46
2019-02-17T07:22:54.566Z,1024.47
2019-02-17T07:23:35.159Z,1024.5
2019-02-17T07:24:15.755Z,1024.5
2019-02-17T07:24:56.353Z,1024.52
2019-02-17T07:25:36.951Z,1024.53
2019-02-17T07:26:17.568Z,1024.54
2019-02-17T07:26:58.152Z,1024.54
2019-02-17T07:27:38.737Z,1024.56
2019-02-17T07:28:19.322Z,1024.52
2019-02-17T07:28:59.923Z,1024.51
2019-02-17T07:29:40.504Z,1024.56
2019-02-17T07:30:21.095Z,1024.53
2019-02-17T07:31:01.701Z,1024.58
2019-02-17T07:31:42.289Z,1024.56
2019-02-17T07:32:22.868Z,1024.55
2019-02-17T07:33:03.475Z,1024.57
2019-02-17T07:33:44.078Z,1024.59
2019-02-17T07:34:24.659Z,1024.59
2019-02-17T07:35:05.246Z,1024.64
2019-02-17T07:35:45.833Z,1024.64
2019-02-17T07:36:26.447Z,1024.62
2019-02-17T07:37:07.042Z,1024.66
2019-02-17T07:37:47.645Z,1024.67
2019-02-17T07:38:28.242Z,1024.67
2019-02-17T07:39:08.862Z,1024.67
2019-02-17T07:39:49.462Z,1024.64
2019-02-17T07:40:30.063Z,1024.67
2019-02-17T07:41:10.659Z,1024.67
2019-02-17T07:41:51.281Z,1024.67
2019-02-17T07:42:31.895Z,1024.66
2019-02-17T07:43:12.515Z,1024.65
2019-02-17T07:43:53.164Z,1024.67
2019-02-17T07:44:33.747Z,1024.66
2019-02-17T07:45:14.371Z,1024.65
2019-02-17T07:45:54.973Z,1024.65
2019-02-17T07:46:35.567Z,1024.64
2019-02-17T07:47:17.992Z,1024.68
2019-02-17T07:47:56.799Z,1024.68
2019-02-17T07:48:37.421Z,1024.66
2019-02-17T07:49:18.055Z,1024.69
2019-02-17T07:49:58.673Z,1024.69
2019-02-17T07:50:39.291Z,1024.68
2019-02-17T07:51:19.885Z,1024.69
2019-02-17T07:52:00.477Z,1024.65
2019-02-17T07:52:41.110Z,1024.67
2019-02-17T07:53:21.699Z,1024.67
2019-02-17T07:54:02.297Z,1024.67
2019-02-17T07:54:42.893Z,1024.66
2019-02-17T07:55:23.504Z,1024.63
2019-02-17T07:56:04.115Z,1024.63
2019-02-17T07:56:44.769Z,1024.63
2019-02-17T07:57:25.357Z,1024.63
2019-02-17T07:58:05.951Z,1024.63
2019-02-17T07:58:46.545Z,1024.63
2019-02-17T07:59:27.151Z,1024.64
2019-02-17T08:00:07.751Z,1024.63
2019-02-17T08:00:48.373Z,1024.62
2019-02-17T08:01:28.953Z,1024.6
2019-02-17T08:02:09.555Z,1024.61
2019-02-17T08:02:50.189Z,1024.63
2019-02-17T08:03:30.788Z,1024.61
2019-02-17T08:04:11.385Z,1024.64
2019-02-17T08:04:51.979Z,1024.61
2019-02-17T08:05:32.592Z,1024.6
2019-02-17T08:06:13.189Z,1024.62
2019-02-17T08:06:53.793Z,1024.59
2019-02-17T08:07:34.387Z,1024.62
2019-02-17T08:08:14.973Z,1024.56
2019-02-17T08:08:55.567Z,1024.58
2019-02-17T08:09:36.179Z,1024.59
2019-02-17T08:10:16.792Z,1024.55
2019-02-17T08:11:03.873Z,1024.56
2019-02-17T08:11:37.986Z,1024.55
2019-02-17T08:12:18.583Z,1024.57
2019-02-17T08:12:59.167Z,1024.55